sensor_id;sensor_type;location;lat;lon;timestamp;temperature;humidity
28548;DHT22;68292;49.600;8.746;2023-03-01T00:00:09;11.10;35.90
28548;DHT22;68292;49.600;8.746;2023-03-01T00:02:40;11.10;35.90
28548;DHT22;68292;49.600;8.746;2023-03-01T00:05:08;11.10;36.00
28548;DHT22;68292;49.600;8.746;2023-03-01T00:07:37;11.10;36.00
28548;DHT22;68292;49.600;8.746;2023-03-01T00:10:06;11.10;36.10
28548;DHT22;68292;49.600;8.746;2023-03-01T00:12:40;11.10;36.10
28548;DHT22;68292;49.600;8.746;2023-03-01T00:15:08;11.10;36.10
28548;DHT22;68292;49.600;8.746;2023-03-01T00:17:37;11.10;36.10
28548;DHT22;68292;49.600;8.746;2023-03-01T00:20:07;11.10;36.10
28548;DHT22;68292;49.600;8.746;2023-03-01T00:22:37;11.10;36.20
28548;DHT22;68292;49.600;8.746;2023-03-01T00:25:06;11.00;36.10
28548;DHT22;68292;49.600;8.746;2023-03-01T00:27:35;11.00;36.10
28548;DHT22;68292;49.600;8.746;2023-03-01T00:30:07;11.00;36.20
28548;DHT22;68292;49.600;8.746;2023-03-01T00:32:36;11.00;36.20
28548;DHT22;68292;49.600;8.746;2023-03-01T00:35:05;11.00;36.20
28548;DHT22;68292;49.600;8.746;2023-03-01T00:37:34;11.00;36.30
28548;DHT22;68292;49.600;8.746;2023-03-01T00:40:04;11.00;36.30
28548;DHT22;68292;49.600;8.746;2023-03-01T00:42:34;11.00;36.30
28548;DHT22;68292;49.600;8.746;2023-03-01T00:45:05;11.00;36.30
28548;DHT22;68292;49.600;8.746;2023-03-01T00:47:34;11.00;36.30
28548;DHT22;68292;49.600;8.746;2023-03-01T00:50:04;11.00;36.30
28548;DHT22;68292;49.600;8.746;2023-03-01T00:52:33;11.00;36.30
28548;DHT22;68292;49.600;8.746;2023-03-01T00:55:02;11.00;36.30
28548;DHT22;68292;49.600;8.746;2023-03-01T00:57:32;11.00;36.30
28548;DHT22;68292;49.600;8.746;2023-03-01T01:00:00;11.00;36.30
28548;DHT22;68292;49.600;8.746;2023-03-01T01:02:32;11.00;37.00
28548;DHT22;68292;49.600;8.746;2023-03-01T01:05:19;11.00;36.40
28548;DHT22;68292;49.600;8.746;2023-03-01T01:07:48;11.00;36.30
28548;DHT22;68292;49.600;8.746;2023-03-01T01:10:17;11.00;36.40
28548;DHT22;68292;49.600;8.746;2023-03-01T01:12:46;11.00;36.40
28548;DHT22;68292;49.600;8.746;2023-03-01T01:15:15;11.00;36.40
28548;DHT22;68292;49.600;8.746;2023-03-01T01:17:45;11.00;36.40
28548;DHT22;68292;49.600;8.746;2023-03-01T01:20:14;10.90;36.40
28548;DHT22;68292;49.600;8.746;2023-03-01T01:22:43;10.90;36.40
28548;DHT22;68292;49.600;8.746;2023-03-01T01:25:12;10.90;36.40
28548;DHT22;68292;49.600;8.746;2023-03-01T01:27:40;10.90;36.40
28548;DHT22;68292;49.600;8.746;2023-03-01T01:30:10;10.90;36.50
28548;DHT22;68292;49.600;8.746;2023-03-01T01:32:39;10.90;36.50
28548;DHT22;68292;49.600;8.746;2023-03-01T01:35:10;10.90;36.60
28548;DHT22;68292;49.600;8.746;2023-03-01T01:37:38;10.90;36.70
28548;DHT22;68292;49.600;8.746;2023-03-01T01:40:10;10.90;36.60
28548;DHT22;68292;49.600;8.746;2023-03-01T01:42:39;10.90;36.70
28548;DHT22;68292;49.600;8.746;2023-03-01T01:45:30;10.90;36.70
28548;DHT22;68292;49.600;8.746;2023-03-01T01:48:03;10.90;36.70
28548;DHT22;68292;49.600;8.746;2023-03-01T01:50:35;11.00;36.70
28548;DHT22;68292;49.600;8.746;2023-03-01T01:53:10;11.00;36.60
28548;DHT22;68292;49.600;8.746;2023-03-01T01:55:43;11.00;36.70
28548;DHT22;68292;49.600;8.746;2023-03-01T01:58:16;11.00;36.70
28548;DHT22;68292;49.600;8.746;2023-03-01T02:00:47;11.00;36.60
28548;DHT22;68292;49.600;8.746;2023-03-01T02:03:20;11.00;36.60
28548;DHT22;68292;49.600;8.746;2023-03-01T02:05:56;11.00;36.60
28548;DHT22;68292;49.600;8.746;2023-03-01T02:08:30;11.00;36.60
28548;DHT22;68292;49.600;8.746;2023-03-01T02:11:19;11.00;36.60
28548;DHT22;68292;49.600;8.746;2023-03-01T02:13:49;11.00;36.60
28548;DHT22;68292;49.600;8.746;2023-03-01T02:16:18;11.00;36.50
28548;DHT22;68292;49.600;8.746;2023-03-01T02:18:47;11.00;36.60
28548;DHT22;68292;49.600;8.746;2023-03-01T02:21:30;11.00;36.50
28548;DHT22;68292;49.600;8.746;2023-03-01T02:24:11;11.00;36.70
28548;DHT22;68292;49.600;8.746;2023-03-01T02:26:50;11.00;36.60
28548;DHT22;68292;49.600;8.746;2023-03-01T02:29:22;11.10;36.60
28548;DHT22;68292;49.600;8.746;2023-03-01T02:31:52;11.10;36.60
28548;DHT22;68292;49.600;8.746;2023-03-01T02:34:26;11.10;36.60
28548;DHT22;68292;49.600;8.746;2023-03-01T02:36:59;11.10;36.60
28548;DHT22;68292;49.600;8.746;2023-03-01T02:39:34;11.10;36.60
28548;DHT22;68292;49.600;8.746;2023-03-01T02:42:11;11.10;36.60
28548;DHT22;68292;49.600;8.746;2023-03-01T02:44:43;11.10;36.60
28548;DHT22;68292;49.600;8.746;2023-03-01T02:47:11;11.00;36.50
28548;DHT22;68292;49.600;8.746;2023-03-01T02:49:40;11.00;36.50
28548;DHT22;68292;49.600;8.746;2023-03-01T02:52:30;11.00;36.50
28548;DHT22;68292;49.600;8.746;2023-03-01T02:55:06;11.00;36.70
28548;DHT22;68292;49.600;8.746;2023-03-01T02:57:39;11.10;36.60
28548;DHT22;68292;49.600;8.746;2023-03-01T03:00:14;11.10;36.60
28548;DHT22;68292;49.600;8.746;2023-03-01T03:02:47;11.10;36.70
28548;DHT22;68292;49.600;8.746;2023-03-01T03:05:20;11.00;36.60
28548;DHT22;68292;49.600;8.746;2023-03-01T03:07:54;11.10;36.60
28548;DHT22;68292;49.600;8.746;2023-03-01T03:10:25;11.00;36.50
28548;DHT22;68292;49.600;8.746;2023-03-01T03:12:57;11.00;36.60
28548;DHT22;68292;49.600;8.746;2023-03-01T03:15:28;11.00;36.60
28548;DHT22;68292;49.600;8.746;2023-03-01T03:17:58;11.00;36.60
28548;DHT22;68292;49.600;8.746;2023-03-01T03:20:28;11.00;36.60
28548;DHT22;68292;49.600;8.746;2023-03-01T03:22:58;11.00;36.60
28548;DHT22;68292;49.600;8.746;2023-03-01T03:25:28;11.00;36.60
28548;DHT22;68292;49.600;8.746;2023-03-01T03:27:57;11.00;36.60
28548;DHT22;68292;49.600;8.746;2023-03-01T03:30:29;11.00;36.60
28548;DHT22;68292;49.600;8.746;2023-03-01T03:32:59;11.00;36.70
28548;DHT22;68292;49.600;8.746;2023-03-01T03:35:29;11.00;36.70
28548;DHT22;68292;49.600;8.746;2023-03-01T03:38:04;11.00;36.70
28548;DHT22;68292;49.600;8.746;2023-03-01T03:40:44;10.90;36.80
28548;DHT22;68292;49.600;8.746;2023-03-01T03:43:15;10.90;36.80
28548;DHT22;68292;49.600;8.746;2023-03-01T03:45:46;10.90;36.70
28548;DHT22;68292;49.600;8.746;2023-03-01T03:48:16;10.90;36.80
28548;DHT22;68292;49.600;8.746;2023-03-01T03:50:48;10.90;36.80
28548;DHT22;68292;49.600;8.746;2023-03-01T03:53:18;10.90;36.80
28548;DHT22;68292;49.600;8.746;2023-03-01T03:55:48;10.90;36.70
28548;DHT22;68292;49.600;8.746;2023-03-01T03:58:19;10.90;36.80
28548;DHT22;68292;49.600;8.746;2023-03-01T04:00:53;10.90;36.80
28548;DHT22;68292;49.600;8.746;2023-03-01T04:03:25;10.90;36.80
28548;DHT22;68292;49.600;8.746;2023-03-01T04:05:54;10.80;36.80
28548;DHT22;68292;49.600;8.746;2023-03-01T04:08:23;10.80;36.80
28548;DHT22;68292;49.600;8.746;2023-03-01T04:10:53;10.80;36.80
28548;DHT22;68292;49.600;8.746;2023-03-01T04:13:25;10.80;36.80
28548;DHT22;68292;49.600;8.746;2023-03-01T04:15:56;10.80;36.80
28548;DHT22;68292;49.600;8.746;2023-03-01T04:18:25;10.80;36.90
28548;DHT22;68292;49.600;8.746;2023-03-01T04:20:53;10.70;36.80
28548;DHT22;68292;49.600;8.746;2023-03-01T04:23:23;10.80;36.90
28548;DHT22;68292;49.600;8.746;2023-03-01T04:25:53;10.80;36.90
28548;DHT22;68292;49.600;8.746;2023-03-01T04:28:24;10.70;36.90
28548;DHT22;68292;49.600;8.746;2023-03-01T04:30:57;10.70;36.90
28548;DHT22;68292;49.600;8.746;2023-03-01T04:33:27;10.80;37.00
28548;DHT22;68292;49.600;8.746;2023-03-01T04:35:56;10.80;37.00
28548;DHT22;68292;49.600;8.746;2023-03-01T04:38:25;10.70;36.90
28548;DHT22;68292;49.600;8.746;2023-03-01T04:40:53;10.70;36.90
28548;DHT22;68292;49.600;8.746;2023-03-01T04:43:22;10.70;36.90
28548;DHT22;68292;49.600;8.746;2023-03-01T04:45:51;10.70;36.90
28548;DHT22;68292;49.600;8.746;2023-03-01T04:48:21;10.70;37.00
28548;DHT22;68292;49.600;8.746;2023-03-01T04:50:50;10.70;37.00
28548;DHT22;68292;49.600;8.746;2023-03-01T04:53:18;10.70;37.00
28548;DHT22;68292;49.600;8.746;2023-03-01T04:55:47;10.70;37.00
28548;DHT22;68292;49.600;8.746;2023-03-01T04:58:15;10.70;37.00
28548;DHT22;68292;49.600;8.746;2023-03-01T05:00:44;10.70;37.10
28548;DHT22;68292;49.600;8.746;2023-03-01T05:03:13;10.60;37.10
28548;DHT22;68292;49.600;8.746;2023-03-01T05:05:49;10.60;37.10
28548;DHT22;68292;49.600;8.746;2023-03-01T05:08:19;10.60;37.10
28548;DHT22;68292;49.600;8.746;2023-03-01T05:10:50;10.60;37.10
28548;DHT22;68292;49.600;8.746;2023-03-01T05:13:21;10.60;37.80
28548;DHT22;68292;49.600;8.746;2023-03-01T05:15:55;10.60;37.20
28548;DHT22;68292;49.600;8.746;2023-03-01T05:18:24;10.60;37.30
28548;DHT22;68292;49.600;8.746;2023-03-01T05:20:55;10.60;37.20
28548;DHT22;68292;49.600;8.746;2023-03-01T05:23:31;10.60;37.20
28548;DHT22;68292;49.600;8.746;2023-03-01T05:26:00;10.60;37.20
28548;DHT22;68292;49.600;8.746;2023-03-01T05:28:33;10.70;37.20
28548;DHT22;68292;49.600;8.746;2023-03-01T05:31:02;10.70;37.20
28548;DHT22;68292;49.600;8.746;2023-03-01T05:33:37;10.70;37.30
28548;DHT22;68292;49.600;8.746;2023-03-01T05:36:09;10.70;37.20
28548;DHT22;68292;49.600;8.746;2023-03-01T05:38:38;10.70;37.30
28548;DHT22;68292;49.600;8.746;2023-03-01T05:41:14;10.70;37.20
28548;DHT22;68292;49.600;8.746;2023-03-01T05:43:44;10.70;37.30
28548;DHT22;68292;49.600;8.746;2023-03-01T05:46:12;10.70;37.30
28548;DHT22;68292;49.600;8.746;2023-03-01T05:48:42;10.70;37.20
28548;DHT22;68292;49.600;8.746;2023-03-01T05:51:12;10.70;37.30
28548;DHT22;68292;49.600;8.746;2023-03-01T05:53:41;10.70;37.30
28548;DHT22;68292;49.600;8.746;2023-03-01T05:56:10;10.70;37.20
28548;DHT22;68292;49.600;8.746;2023-03-01T05:58:38;10.70;37.20
28548;DHT22;68292;49.600;8.746;2023-03-01T06:01:11;10.70;37.20
28548;DHT22;68292;49.600;8.746;2023-03-01T06:03:40;10.70;37.30
28548;DHT22;68292;49.600;8.746;2023-03-01T06:06:09;10.70;37.30
28548;DHT22;68292;49.600;8.746;2023-03-01T06:08:39;10.70;37.30
28548;DHT22;68292;49.600;8.746;2023-03-01T06:11:08;10.70;37.30
28548;DHT22;68292;49.600;8.746;2023-03-01T06:13:37;10.70;37.30
28548;DHT22;68292;49.600;8.746;2023-03-01T06:16:06;10.70;37.30
28548;DHT22;68292;49.600;8.746;2023-03-01T06:18:36;10.70;37.30
28548;DHT22;68292;49.600;8.746;2023-03-01T06:21:06;10.70;37.30
28548;DHT22;68292;49.600;8.746;2023-03-01T06:23:36;10.70;37.30
28548;DHT22;68292;49.600;8.746;2023-03-01T06:26:07;10.70;37.30
28548;DHT22;68292;49.600;8.746;2023-03-01T06:28:37;10.70;37.40
28548;DHT22;68292;49.600;8.746;2023-03-01T06:31:05;10.70;37.30
28548;DHT22;68292;49.600;8.746;2023-03-01T06:33:36;10.70;37.30
28548;DHT22;68292;49.600;8.746;2023-03-01T06:36:05;10.80;37.30
28548;DHT22;68292;49.600;8.746;2023-03-01T06:38:34;10.80;37.40
28548;DHT22;68292;49.600;8.746;2023-03-01T06:41:03;10.80;37.40
28548;DHT22;68292;49.600;8.746;2023-03-01T06:43:33;10.80;37.40
28548;DHT22;68292;49.600;8.746;2023-03-01T06:46:04;10.80;37.40
28548;DHT22;68292;49.600;8.746;2023-03-01T06:48:34;10.80;37.40
28548;DHT22;68292;49.600;8.746;2023-03-01T06:51:03;10.80;37.40
28548;DHT22;68292;49.600;8.746;2023-03-01T06:53:32;10.90;37.40
28548;DHT22;68292;49.600;8.746;2023-03-01T06:56:00;10.90;37.40
28548;DHT22;68292;49.600;8.746;2023-03-01T06:58:29;10.90;37.40
28548;DHT22;68292;49.600;8.746;2023-03-01T07:00:59;10.90;37.50
28548;DHT22;68292;49.600;8.746;2023-03-01T07:03:28;11.00;37.50
28548;DHT22;68292;49.600;8.746;2023-03-01T07:05:56;11.00;37.50
28548;DHT22;68292;49.600;8.746;2023-03-01T07:08:25;11.00;37.50
28548;DHT22;68292;49.600;8.746;2023-03-01T07:10:57;11.00;37.50
28548;DHT22;68292;49.600;8.746;2023-03-01T07:13:26;11.10;37.60
28548;DHT22;68292;49.600;8.746;2023-03-01T07:15:54;11.10;37.50
28548;DHT22;68292;49.600;8.746;2023-03-01T07:18:24;11.10;37.50
28548;DHT22;68292;49.600;8.746;2023-03-01T07:20:53;11.10;37.50
28548;DHT22;68292;49.600;8.746;2023-03-01T07:23:22;11.20;37.50
28548;DHT22;68292;49.600;8.746;2023-03-01T07:25:52;11.20;37.50
28548;DHT22;68292;49.600;8.746;2023-03-01T07:28:23;11.30;37.50
28548;DHT22;68292;49.600;8.746;2023-03-01T07:30:52;11.30;37.50
28548;DHT22;68292;49.600;8.746;2023-03-01T07:33:21;11.30;37.50
28548;DHT22;68292;49.600;8.746;2023-03-01T07:35:57;11.30;37.50
28548;DHT22;68292;49.600;8.746;2023-03-01T07:38:26;11.30;37.50
28548;DHT22;68292;49.600;8.746;2023-03-01T07:40:58;11.40;37.50
28548;DHT22;68292;49.600;8.746;2023-03-01T07:43:29;11.40;37.50
28548;DHT22;68292;49.600;8.746;2023-03-01T07:45:59;11.40;37.50
28548;DHT22;68292;49.600;8.746;2023-03-01T07:48:29;11.40;37.50
28548;DHT22;68292;49.600;8.746;2023-03-01T07:51:00;11.40;37.50
28548;DHT22;68292;49.600;8.746;2023-03-01T07:53:29;11.50;37.60
28548;DHT22;68292;49.600;8.746;2023-03-01T07:56:03;11.50;37.50
28548;DHT22;68292;49.600;8.746;2023-03-01T07:58:34;11.50;37.60
28548;DHT22;68292;49.600;8.746;2023-03-01T08:01:04;11.50;37.50
28548;DHT22;68292;49.600;8.746;2023-03-01T08:03:35;11.60;37.50
28548;DHT22;68292;49.600;8.746;2023-03-01T08:06:08;11.60;37.40
28548;DHT22;68292;49.600;8.746;2023-03-01T08:08:38;11.60;37.30
28548;DHT22;68292;49.600;8.746;2023-03-01T08:11:10;11.60;37.40
28548;DHT22;68292;49.600;8.746;2023-03-01T08:13:39;11.60;37.30
28548;DHT22;68292;49.600;8.746;2023-03-01T08:16:10;11.70;37.20
28548;DHT22;68292;49.600;8.746;2023-03-01T08:18:40;11.60;37.20
28548;DHT22;68292;49.600;8.746;2023-03-01T08:21:12;11.70;37.40
28548;DHT22;68292;49.600;8.746;2023-03-01T08:23:43;11.70;37.40
28548;DHT22;68292;49.600;8.746;2023-03-01T08:26:14;11.70;37.30
28548;DHT22;68292;49.600;8.746;2023-03-01T08:28:44;11.70;37.40
28548;DHT22;68292;49.600;8.746;2023-03-01T08:31:14;11.70;37.40
28548;DHT22;68292;49.600;8.746;2023-03-01T08:33:44;11.80;37.50
28548;DHT22;68292;49.600;8.746;2023-03-01T08:36:19;11.80;37.40
28548;DHT22;68292;49.600;8.746;2023-03-01T08:38:48;11.80;37.40
28548;DHT22;68292;49.600;8.746;2023-03-01T08:41:17;11.80;37.50
28548;DHT22;68292;49.600;8.746;2023-03-01T08:43:46;11.80;37.50
28548;DHT22;68292;49.600;8.746;2023-03-01T08:46:14;11.90;37.50
28548;DHT22;68292;49.600;8.746;2023-03-01T08:48:43;11.90;37.60
28548;DHT22;68292;49.600;8.746;2023-03-01T08:51:15;11.90;37.50
28548;DHT22;68292;49.600;8.746;2023-03-01T08:53:47;12.00;37.50
28548;DHT22;68292;49.600;8.746;2023-03-01T08:56:17;12.00;37.40
28548;DHT22;68292;49.600;8.746;2023-03-01T08:58:47;12.10;37.50
28548;DHT22;68292;49.600;8.746;2023-03-01T09:01:18;12.10;37.40
28548;DHT22;68292;49.600;8.746;2023-03-01T09:03:47;12.10;37.40
28548;DHT22;68292;49.600;8.746;2023-03-01T09:06:16;12.10;37.40
28548;DHT22;68292;49.600;8.746;2023-03-01T09:08:48;12.20;37.40
28548;DHT22;68292;49.600;8.746;2023-03-01T09:11:20;12.20;37.30
28548;DHT22;68292;49.600;8.746;2023-03-01T09:13:49;12.20;37.20
28548;DHT22;68292;49.600;8.746;2023-03-01T09:16:20;12.20;37.20
28548;DHT22;68292;49.600;8.746;2023-03-01T09:18:50;12.20;37.30
28548;DHT22;68292;49.600;8.746;2023-03-01T09:21:21;12.30;37.30
28548;DHT22;68292;49.600;8.746;2023-03-01T09:24:12;12.30;37.20
28548;DHT22;68292;49.600;8.746;2023-03-01T09:26:42;12.30;37.10
28548;DHT22;68292;49.600;8.746;2023-03-01T09:29:15;12.30;37.20
28548;DHT22;68292;49.600;8.746;2023-03-01T09:31:44;12.30;37.20
28548;DHT22;68292;49.600;8.746;2023-03-01T09:34:13;12.40;37.50
28548;DHT22;68292;49.600;8.746;2023-03-01T09:36:43;12.40;37.40
28548;DHT22;68292;49.600;8.746;2023-03-01T09:39:13;12.50;37.50
28548;DHT22;68292;49.600;8.746;2023-03-01T09:41:48;12.50;37.50
28548;DHT22;68292;49.600;8.746;2023-03-01T09:44:31;12.50;37.30
28548;DHT22;68292;49.600;8.746;2023-03-01T09:47:05;12.60;37.30
28548;DHT22;68292;49.600;8.746;2023-03-01T09:49:41;12.70;37.50
28548;DHT22;68292;49.600;8.746;2023-03-01T09:52:23;12.70;37.50
28548;DHT22;68292;49.600;8.746;2023-03-01T09:54:56;12.80;37.30
28548;DHT22;68292;49.600;8.746;2023-03-01T09:57:33;12.90;37.20
28548;DHT22;68292;49.600;8.746;2023-03-01T10:00:16;13.00;37.10
28548;DHT22;68292;49.600;8.746;2023-03-01T10:02:58;13.00;36.80
28548;DHT22;68292;49.600;8.746;2023-03-01T10:05:47;13.10;36.90
28548;DHT22;68292;49.600;8.746;2023-03-01T10:08:34;13.10;36.80
28548;DHT22;68292;49.600;8.746;2023-03-01T10:11:20;13.20;36.60
28548;DHT22;68292;49.600;8.746;2023-03-01T10:13:56;13.20;36.50
28548;DHT22;68292;49.600;8.746;2023-03-01T10:16:34;13.30;36.80
28548;DHT22;68292;49.600;8.746;2023-03-01T10:19:12;13.30;36.60
28548;DHT22;68292;49.600;8.746;2023-03-01T10:21:45;13.30;36.60
28548;DHT22;68292;49.600;8.746;2023-03-01T10:24:16;13.30;36.60
28548;DHT22;68292;49.600;8.746;2023-03-01T10:26:54;13.30;36.60
28548;DHT22;68292;49.600;8.746;2023-03-01T10:29:27;13.30;36.50
28548;DHT22;68292;49.600;8.746;2023-03-01T10:31:59;13.30;36.60
28548;DHT22;68292;49.600;8.746;2023-03-01T10:34:30;13.30;36.70
28548;DHT22;68292;49.600;8.746;2023-03-01T10:37:09;13.30;36.60
28548;DHT22;68292;49.600;8.746;2023-03-01T10:39:58;13.30;36.60
28548;DHT22;68292;49.600;8.746;2023-03-01T10:42:37;13.30;36.50
28548;DHT22;68292;49.600;8.746;2023-03-01T10:45:33;13.30;36.50
28548;DHT22;68292;49.600;8.746;2023-03-01T10:48:05;13.30;36.40
28548;DHT22;68292;49.600;8.746;2023-03-01T10:50:40;13.30;36.60
28548;DHT22;68292;49.600;8.746;2023-03-01T10:53:22;13.30;36.70
28548;DHT22;68292;49.600;8.746;2023-03-01T10:55:58;13.30;36.50
28548;DHT22;68292;49.600;8.746;2023-03-01T10:58:31;13.30;36.60
28548;DHT22;68292;49.600;8.746;2023-03-01T11:01:02;13.30;36.70
28548;DHT22;68292;49.600;8.746;2023-03-01T11:03:33;13.30;36.80
28548;DHT22;68292;49.600;8.746;2023-03-01T11:06:05;13.40;36.80
28548;DHT22;68292;49.600;8.746;2023-03-01T11:08:49;13.40;36.60
28548;DHT22;68292;49.600;8.746;2023-03-01T11:11:25;13.40;36.50
28548;DHT22;68292;49.600;8.746;2023-03-01T11:14:05;13.40;36.50
28548;DHT22;68292;49.600;8.746;2023-03-01T11:16:59;13.40;36.70
28548;DHT22;68292;49.600;8.746;2023-03-01T11:19:30;13.40;36.50
28548;DHT22;68292;49.600;8.746;2023-03-01T11:22:03;13.40;36.60
28548;DHT22;68292;49.600;8.746;2023-03-01T11:24:38;13.40;36.80
28548;DHT22;68292;49.600;8.746;2023-03-01T11:27:22;13.40;36.70
28548;DHT22;68292;49.600;8.746;2023-03-01T11:29:58;13.40;36.50
28548;DHT22;68292;49.600;8.746;2023-03-01T11:32:36;13.40;36.60
28548;DHT22;68292;49.600;8.746;2023-03-01T11:35:13;13.40;36.60
28548;DHT22;68292;49.600;8.746;2023-03-01T11:37:50;13.40;36.70
28548;DHT22;68292;49.600;8.746;2023-03-01T11:40:31;13.40;36.80
28548;DHT22;68292;49.600;8.746;2023-03-01T11:43:12;13.40;36.90
28548;DHT22;68292;49.600;8.746;2023-03-01T11:46:07;13.40;36.80
28548;DHT22;68292;49.600;8.746;2023-03-01T11:48:56;13.40;36.70
28548;DHT22;68292;49.600;8.746;2023-03-01T11:51:41;13.50;36.70
28548;DHT22;68292;49.600;8.746;2023-03-01T11:54:21;13.50;36.70
28548;DHT22;68292;49.600;8.746;2023-03-01T11:57:01;13.50;36.70
28548;DHT22;68292;49.600;8.746;2023-03-01T11:59:54;13.50;36.90
28548;DHT22;68292;49.600;8.746;2023-03-01T12:09:04;13.50;36.80
28548;DHT22;68292;49.600;8.746;2023-03-01T12:11:47;13.50;36.90
28548;DHT22;68292;49.600;8.746;2023-03-01T12:14:41;13.50;37.00
28548;DHT22;68292;49.600;8.746;2023-03-01T12:17:35;13.50;37.00
28548;DHT22;68292;49.600;8.746;2023-03-01T12:20:20;13.50;36.90
28548;DHT22;68292;49.600;8.746;2023-03-01T12:23:20;13.50;36.70
28548;DHT22;68292;49.600;8.746;2023-03-01T12:25:58;13.50;36.90
28548;DHT22;68292;49.600;8.746;2023-03-01T12:28:48;13.50;36.90
28548;DHT22;68292;49.600;8.746;2023-03-01T12:31:49;13.50;36.90
28548;DHT22;68292;49.600;8.746;2023-03-01T12:37:39;13.50;36.90
28548;DHT22;68292;49.600;8.746;2023-03-01T12:43:17;13.60;36.90
28548;DHT22;68292;49.600;8.746;2023-03-01T12:45:58;13.50;36.70
28548;DHT22;68292;49.600;8.746;2023-03-01T12:48:52;13.50;36.80
28548;DHT22;68292;49.600;8.746;2023-03-01T12:51:28;13.60;36.80
28548;DHT22;68292;49.600;8.746;2023-03-01T12:54:00;13.60;36.80
28548;DHT22;68292;49.600;8.746;2023-03-01T12:56:36;13.60;36.80
28548;DHT22;68292;49.600;8.746;2023-03-01T12:59:13;13.60;36.80
28548;DHT22;68292;49.600;8.746;2023-03-01T13:01:51;13.60;36.70
28548;DHT22;68292;49.600;8.746;2023-03-01T13:04:54;13.60;36.70
28548;DHT22;68292;49.600;8.746;2023-03-01T13:07:35;13.50;36.50
28548;DHT22;68292;49.600;8.746;2023-03-01T13:10:16;13.60;36.50
28548;DHT22;68292;49.600;8.746;2023-03-01T13:13:00;13.60;36.70
28548;DHT22;68292;49.600;8.746;2023-03-01T13:15:33;13.60;36.80
28548;DHT22;68292;49.600;8.746;2023-03-01T13:18:04;13.60;36.80
28548;DHT22;68292;49.600;8.746;2023-03-01T13:20:58;13.60;36.70
28548;DHT22;68292;49.600;8.746;2023-03-01T13:23:32;13.60;36.70
28548;DHT22;68292;49.600;8.746;2023-03-01T13:26:14;13.60;36.70
28548;DHT22;68292;49.600;8.746;2023-03-01T13:28:54;13.60;36.70
28548;DHT22;68292;49.600;8.746;2023-03-01T13:31:58;13.60;36.40
28548;DHT22;68292;49.600;8.746;2023-03-01T13:34:53;13.60;36.60
28548;DHT22;68292;49.600;8.746;2023-03-01T13:37:26;13.60;36.60
28548;DHT22;68292;49.600;8.746;2023-03-01T13:43:32;13.60;36.60
28548;DHT22;68292;49.600;8.746;2023-03-01T13:46:09;13.70;36.70
28548;DHT22;68292;49.600;8.746;2023-03-01T13:48:41;13.70;36.60
28548;DHT22;68292;49.600;8.746;2023-03-01T13:51:14;13.70;36.60
28548;DHT22;68292;49.600;8.746;2023-03-01T13:53:45;13.70;36.60
28548;DHT22;68292;49.600;8.746;2023-03-01T13:56:18;13.60;36.50
28548;DHT22;68292;49.600;8.746;2023-03-01T13:58:50;13.60;36.60
28548;DHT22;68292;49.600;8.746;2023-03-01T14:01:23;13.60;36.50
28548;DHT22;68292;49.600;8.746;2023-03-01T14:03:54;13.70;36.60
28548;DHT22;68292;49.600;8.746;2023-03-01T14:06:24;13.70;36.60
28548;DHT22;68292;49.600;8.746;2023-03-01T14:09:03;13.70;36.50
28548;DHT22;68292;49.600;8.746;2023-03-01T14:11:54;13.70;36.40
28548;DHT22;68292;49.600;8.746;2023-03-01T14:14:45;13.70;36.60
28548;DHT22;68292;49.600;8.746;2023-03-01T14:17:29;13.70;36.30
28548;DHT22;68292;49.600;8.746;2023-03-01T14:20:17;13.70;36.20
28548;DHT22;68292;49.600;8.746;2023-03-01T14:22:48;13.70;36.20
28548;DHT22;68292;49.600;8.746;2023-03-01T14:25:22;13.70;36.30
28548;DHT22;68292;49.600;8.746;2023-03-01T14:27:58;13.70;36.40
28548;DHT22;68292;49.600;8.746;2023-03-01T14:30:35;13.70;36.40
28548;DHT22;68292;49.600;8.746;2023-03-01T14:33:18;13.70;36.50
28548;DHT22;68292;49.600;8.746;2023-03-01T14:35:55;13.70;36.30
28548;DHT22;68292;49.600;8.746;2023-03-01T14:38:32;13.70;36.30
28548;DHT22;68292;49.600;8.746;2023-03-01T14:41:03;13.70;36.30
28548;DHT22;68292;49.600;8.746;2023-03-01T14:43:37;13.80;36.40
28548;DHT22;68292;49.600;8.746;2023-03-01T14:46:18;13.80;36.30
28548;DHT22;68292;49.600;8.746;2023-03-01T14:48:50;13.80;36.20
28548;DHT22;68292;49.600;8.746;2023-03-01T14:51:22;13.80;36.40
28548;DHT22;68292;49.600;8.746;2023-03-01T14:53:51;13.80;36.30
28548;DHT22;68292;49.600;8.746;2023-03-01T14:56:20;13.80;36.40
28548;DHT22;68292;49.600;8.746;2023-03-01T14:58:57;13.80;36.30
28548;DHT22;68292;49.600;8.746;2023-03-01T15:01:27;13.80;36.20
28548;DHT22;68292;49.600;8.746;2023-03-01T15:03:57;13.80;36.20
28548;DHT22;68292;49.600;8.746;2023-03-01T15:06:28;13.80;36.30
28548;DHT22;68292;49.600;8.746;2023-03-01T15:08:58;13.80;36.20
28548;DHT22;68292;49.600;8.746;2023-03-01T15:11:28;13.80;36.10
28548;DHT22;68292;49.600;8.746;2023-03-01T15:13:59;13.80;36.10
28548;DHT22;68292;49.600;8.746;2023-03-01T15:16:29;13.80;36.00
28548;DHT22;68292;49.600;8.746;2023-03-01T15:19:01;13.80;36.10
28548;DHT22;68292;49.600;8.746;2023-03-01T15:21:32;13.80;36.00
28548;DHT22;68292;49.600;8.746;2023-03-01T15:24:07;13.80;36.00
28548;DHT22;68292;49.600;8.746;2023-03-01T15:26:51;13.80;35.90
28548;DHT22;68292;49.600;8.746;2023-03-01T15:29:26;13.80;35.80
28548;DHT22;68292;49.600;8.746;2023-03-01T15:31:59;13.80;35.80
28548;DHT22;68292;49.600;8.746;2023-03-01T15:34:32;13.80;35.70
28548;DHT22;68292;49.600;8.746;2023-03-01T15:37:02;13.80;35.70
28548;DHT22;68292;49.600;8.746;2023-03-01T15:39:38;13.80;35.80
28548;DHT22;68292;49.600;8.746;2023-03-01T15:42:12;13.80;35.70
28548;DHT22;68292;49.600;8.746;2023-03-01T15:44:45;13.80;35.80
28548;DHT22;68292;49.600;8.746;2023-03-01T15:47:25;13.80;36.50
28548;DHT22;68292;49.600;8.746;2023-03-01T15:49:57;13.80;35.60
28548;DHT22;68292;49.600;8.746;2023-03-01T15:52:28;13.80;35.80
28548;DHT22;68292;49.600;8.746;2023-03-01T15:55:00;13.80;35.80
28548;DHT22;68292;49.600;8.746;2023-03-01T15:57:30;13.80;35.80
28548;DHT22;68292;49.600;8.746;2023-03-01T16:00:00;13.90;35.90
28548;DHT22;68292;49.600;8.746;2023-03-01T16:02:38;13.80;35.60
28548;DHT22;68292;49.600;8.746;2023-03-01T16:05:17;13.90;35.70
28548;DHT22;68292;49.600;8.746;2023-03-01T16:07:47;13.90;35.60
28548;DHT22;68292;49.600;8.746;2023-03-01T16:10:16;13.90;35.70
28548;DHT22;68292;49.600;8.746;2023-03-01T16:12:45;13.90;35.80
28548;DHT22;68292;49.600;8.746;2023-03-01T16:15:19;13.90;35.80
28548;DHT22;68292;49.600;8.746;2023-03-01T16:17:48;13.90;35.70
28548;DHT22;68292;49.600;8.746;2023-03-01T16:20:21;13.90;35.70
28548;DHT22;68292;49.600;8.746;2023-03-01T16:22:58;13.90;35.70
28548;DHT22;68292;49.600;8.746;2023-03-01T16:25:29;13.90;35.70